sensor_id;sensor_type;location;lat;lon;timestamp;temperature;humidity
72905;DHT22;61048;52.162;4.516;2023-11-22T00:01:11;15.70;63.30
72905;DHT22;61048;52.162;4.516;2023-11-22T00:03:39;15.80;63.30
72905;DHT22;61048;52.162;4.516;2023-11-22T00:06:06;15.80;63.30
72905;DHT22;61048;52.162;4.516;2023-11-22T00:08:33;15.80;63.30
72905;DHT22;61048;52.162;4.516;2023-11-22T00:11:00;15.80;63.20
72905;DHT22;61048;52.162;4.516;2023-11-22T00:13:28;15.80;63.30
72905;DHT22;61048;52.162;4.516;2023-11-22T00:15:55;15.80;63.20
72905;DHT22;61048;52.162;4.516;2023-11-22T00:18:22;15.80;63.20
72905;DHT22;61048;52.162;4.516;2023-11-22T00:20:51;15.80;63.20
72905;DHT22;61048;52.162;4.516;2023-11-22T00:23:18;15.80;63.30
72905;DHT22;61048;52.162;4.516;2023-11-22T00:25:45;15.80;63.30
72905;DHT22;61048;52.162;4.516;2023-11-22T00:28:14;15.80;63.40
72905;DHT22;61048;52.162;4.516;2023-11-22T00:30:41;15.90;63.30
72905;DHT22;61048;52.162;4.516;2023-11-22T00:33:08;15.90;63.40
72905;DHT22;61048;52.162;4.516;2023-11-22T00:35:35;15.90;63.40
72905;DHT22;61048;52.162;4.516;2023-11-22T00:38:03;15.90;63.40
72905;DHT22;61048;52.162;4.516;2023-11-22T00:40:30;15.90;63.40
72905;DHT22;61048;52.162;4.516;2023-11-22T00:42:57;15.90;63.40
72905;DHT22;61048;52.162;4.516;2023-11-22T00:45:24;15.90;63.30
72905;DHT22;61048;52.162;4.516;2023-11-22T00:47:51;15.90;63.40
72905;DHT22;61048;52.162;4.516;2023-11-22T00:50:18;15.90;63.50
72905;DHT22;61048;52.162;4.516;2023-11-22T00:52:45;15.90;63.40
72905;DHT22;61048;52.162;4.516;2023-11-22T00:55:16;15.90;63.40
72905;DHT22;61048;52.162;4.516;2023-11-22T00:57:42;15.90;63.40
72905;DHT22;61048;52.162;4.516;2023-11-22T01:00:10;15.90;63.40
72905;DHT22;61048;52.162;4.516;2023-11-22T01:02:38;15.90;63.40
72905;DHT22;61048;52.162;4.516;2023-11-22T01:05:06;16.00;63.50
72905;DHT22;61048;52.162;4.516;2023-11-22T01:07:36;16.00;63.50
72905;DHT22;61048;52.162;4.516;2023-11-22T01:10:04;15.90;63.50
72905;DHT22;61048;52.162;4.516;2023-11-22T01:12:32;16.00;63.50
72905;DHT22;61048;52.162;4.516;2023-11-22T01:14:59;16.00;63.40
72905;DHT22;61048;52.162;4.516;2023-11-22T01:17:26;16.00;63.50
72905;DHT22;61048;52.162;4.516;2023-11-22T01:19:53;16.00;63.50
72905;DHT22;61048;52.162;4.516;2023-11-22T01:22:20;16.00;63.50
72905;DHT22;61048;52.162;4.516;2023-11-22T01:24:47;16.00;63.50
72905;DHT22;61048;52.162;4.516;2023-11-22T01:27:14;16.00;63.50
72905;DHT22;61048;52.162;4.516;2023-11-22T01:29:42;16.00;63.50
72905;DHT22;61048;52.162;4.516;2023-11-22T01:32:09;16.00;63.60
72905;DHT22;61048;52.162;4.516;2023-11-22T01:34:36;16.00;63.70
72905;DHT22;61048;52.162;4.516;2023-11-22T01:37:04;16.00;63.70
72905;DHT22;61048;52.162;4.516;2023-11-22T01:39:34;16.00;63.80
72905;DHT22;61048;52.162;4.516;2023-11-22T01:42:01;16.00;63.80
72905;DHT22;61048;52.162;4.516;2023-11-22T01:44:28;16.00;63.80
72905;DHT22;61048;52.162;4.516;2023-11-22T01:46:56;16.00;63.90
72905;DHT22;61048;52.162;4.516;2023-11-22T01:49:23;16.00;63.90
72905;DHT22;61048;52.162;4.516;2023-11-22T01:51:50;16.10;63.90
72905;DHT22;61048;52.162;4.516;2023-11-22T01:54:18;16.10;64.00
72905;DHT22;61048;52.162;4.516;2023-11-22T01:56:48;16.00;64.00
72905;DHT22;61048;52.162;4.516;2023-11-22T01:59:16;16.00;64.10
72905;DHT22;61048;52.162;4.516;2023-11-22T02:01:46;16.10;64.10
72905;DHT22;61048;52.162;4.516;2023-11-22T02:04:14;16.10;64.10
72905;DHT22;61048;52.162;4.516;2023-11-22T02:06:41;16.10;64.10
72905;DHT22;61048;52.162;4.516;2023-11-22T02:09:08;16.10;64.20
72905;DHT22;61048;52.162;4.516;2023-11-22T02:11:41;16.10;64.10
72905;DHT22;61048;52.162;4.516;2023-11-22T02:14:11;16.10;64.20
72905;DHT22;61048;52.162;4.516;2023-11-22T02:16:38;16.10;64.30
72905;DHT22;61048;52.162;4.516;2023-11-22T02:19:06;16.10;64.30
72905;DHT22;61048;52.162;4.516;2023-11-22T02:21:35;16.10;64.40
72905;DHT22;61048;52.162;4.516;2023-11-22T02:24:04;16.10;64.40
72905;DHT22;61048;52.162;4.516;2023-11-22T02:26:31;16.10;64.30
72905;DHT22;61048;52.162;4.516;2023-11-22T02:28:59;16.10;64.50
72905;DHT22;61048;52.162;4.516;2023-11-22T02:31:26;16.10;64.40
72905;DHT22;61048;52.162;4.516;2023-11-22T02:33:53;16.10;64.40
72905;DHT22;61048;52.162;4.516;2023-11-22T02:36:20;16.10;64.40
72905;DHT22;61048;52.162;4.516;2023-11-22T02:38:48;16.10;64.40
72905;DHT22;61048;52.162;4.516;2023-11-22T02:41:17;16.20;64.40
72905;DHT22;61048;52.162;4.516;2023-11-22T02:43:44;16.20;64.40
72905;DHT22;61048;52.162;4.516;2023-11-22T02:46:11;16.20;64.50
72905;DHT22;61048;52.162;4.516;2023-11-22T02:48:39;16.20;64.40
72905;DHT22;61048;52.162;4.516;2023-11-22T02:51:06;16.20;64.40
72905;DHT22;61048;52.162;4.516;2023-11-22T02:53:33;16.20;64.40
72905;DHT22;61048;52.162;4.516;2023-11-22T02:56:00;16.20;64.40
72905;DHT22;61048;52.162;4.516;2023-11-22T03:00:54;16.20;64.40
72905;DHT22;61048;52.162;4.516;2023-11-22T03:03:22;16.20;64.40
72905;DHT22;61048;52.162;4.516;2023-11-22T03:05:50;16.20;64.40
72905;DHT22;61048;52.162;4.516;2023-11-22T03:08:16;16.20;64.40
72905;DHT22;61048;52.162;4.516;2023-11-22T03:10:43;16.20;64.50
72905;DHT22;61048;52.162;4.516;2023-11-22T03:13:10;16.20;64.50
72905;DHT22;61048;52.162;4.516;2023-11-22T03:15:38;16.20;64.50
72905;DHT22;61048;52.162;4.516;2023-11-22T03:18:05;16.20;64.50
72905;DHT22;61048;52.162;4.516;2023-11-22T03:20:33;16.20;64.60
72905;DHT22;61048;52.162;4.516;2023-11-22T03:23:00;16.20;64.60
72905;DHT22;61048;52.162;4.516;2023-11-22T03:25:27;16.20;64.60
72905;DHT22;61048;52.162;4.516;2023-11-22T03:27:54;16.20;64.70
72905;DHT22;61048;52.162;4.516;2023-11-22T03:30:21;16.20;64.70
72905;DHT22;61048;52.162;4.516;2023-11-22T03:32:49;16.20;64.70
72905;DHT22;61048;52.162;4.516;2023-11-22T03:35:16;16.20;64.80
72905;DHT22;61048;52.162;4.516;2023-11-22T03:37:43;16.20;64.70
72905;DHT22;61048;52.162;4.516;2023-11-22T03:40:11;16.20;64.80
72905;DHT22;61048;52.162;4.516;2023-11-22T03:42:39;16.20;64.70
72905;DHT22;61048;52.162;4.516;2023-11-22T03:45:07;16.20;64.80
72905;DHT22;61048;52.162;4.516;2023-11-22T03:47:33;16.20;64.90
72905;DHT22;61048;52.162;4.516;2023-11-22T03:50:05;16.20;64.90
72905;DHT22;61048;52.162;4.516;2023-11-22T03:52:32;16.20;64.90
72905;DHT22;61048;52.162;4.516;2023-11-22T03:54:59;16.20;64.90
72905;DHT22;61048;52.162;4.516;2023-11-22T03:57:26;16.20;64.90
72905;DHT22;61048;52.162;4.516;2023-11-22T03:59:53;16.20;64.90
72905;DHT22;61048;52.162;4.516;2023-11-22T04:02:20;16.20;64.80
72905;DHT22;61048;52.162;4.516;2023-11-22T04:04:46;16.20;64.80
72905;DHT22;61048;52.162;4.516;2023-11-22T04:07:15;16.20;64.80
72905;DHT22;61048;52.162;4.516;2023-11-22T04:09:41;16.20;64.90
72905;DHT22;61048;52.162;4.516;2023-11-22T04:12:08;16.20;64.80
72905;DHT22;61048;52.162;4.516;2023-11-22T04:14:35;16.20;64.80
72905;DHT22;61048;52.162;4.516;2023-11-22T04:17:02;16.20;64.80
72905;DHT22;61048;52.162;4.516;2023-11-22T04:19:29;16.20;64.80
72905;DHT22;61048;52.162;4.516;2023-11-22T04:21:56;16.20;64.90
72905;DHT22;61048;52.162;4.516;2023-11-22T04:24:26;16.20;64.90
72905;DHT22;61048;52.162;4.516;2023-11-22T04:26:53;16.20;64.90
72905;DHT22;61048;52.162;4.516;2023-11-22T04:29:20;16.20;64.90
72905;DHT22;61048;52.162;4.516;2023-11-22T04:31:47;16.20;64.90
72905;DHT22;61048;52.162;4.516;2023-11-22T04:34:13;16.20;65.00
72905;DHT22;61048;52.162;4.516;2023-11-22T04:36:40;16.20;65.00
72905;DHT22;61048;52.162;4.516;2023-11-22T04:39:07;16.20;65.00
72905;DHT22;61048;52.162;4.516;2023-11-22T04:41:37;16.20;65.00
72905;DHT22;61048;52.162;4.516;2023-11-22T04:44:04;16.20;65.10
72905;DHT22;61048;52.162;4.516;2023-11-22T04:46:31;16.20;65.10
72905;DHT22;61048;52.162;4.516;2023-11-22T04:48:59;16.20;65.00
72905;DHT22;61048;52.162;4.516;2023-11-22T04:51:26;16.20;65.00
72905;DHT22;61048;52.162;4.516;2023-11-22T04:53:54;16.20;65.10
72905;DHT22;61048;52.162;4.516;2023-11-22T04:56:21;16.20;65.20
72905;DHT22;61048;52.162;4.516;2023-11-22T04:58:49;16.20;65.20
72905;DHT22;61048;52.162;4.516;2023-11-22T05:01:16;16.20;65.40
72905;DHT22;61048;52.162;4.516;2023-11-22T05:03:43;16.20;65.50
72905;DHT22;61048;52.162;4.516;2023-11-22T05:06:10;16.20;65.40
72905;DHT22;61048;52.162;4.516;2023-11-22T05:08:37;16.20;65.50
72905;DHT22;61048;52.162;4.516;2023-11-22T05:11:05;16.20;65.60
72905;DHT22;61048;52.162;4.516;2023-11-22T05:13:33;16.20;65.60
72905;DHT22;61048;52.162;4.516;2023-11-22T05:16:01;16.20;65.50
72905;DHT22;61048;52.162;4.516;2023-11-22T05:18:28;16.20;65.60
72905;DHT22;61048;52.162;4.516;2023-11-22T05:20:55;16.20;65.60
72905;DHT22;61048;52.162;4.516;2023-11-22T05:23:22;16.20;65.60
72905;DHT22;61048;52.162;4.516;2023-11-22T05:25:49;16.20;65.60
72905;DHT22;61048;52.162;4.516;2023-11-22T05:28:16;16.20;65.60
72905;DHT22;61048;52.162;4.516;2023-11-22T05:30:43;16.20;65.70
72905;DHT22;61048;52.162;4.516;2023-11-22T05:33:11;16.20;65.70
72905;DHT22;61048;52.162;4.516;2023-11-22T05:35:38;16.20;65.70
72905;DHT22;61048;52.162;4.516;2023-11-22T05:38:06;16.20;65.60
72905;DHT22;61048;52.162;4.516;2023-11-22T05:40:35;16.20;65.60
72905;DHT22;61048;52.162;4.516;2023-11-22T05:43:03;16.20;65.50
72905;DHT22;61048;52.162;4.516;2023-11-22T05:45:30;16.20;65.50
72905;DHT22;61048;52.162;4.516;2023-11-22T05:47:57;16.20;65.50
72905;DHT22;61048;52.162;4.516;2023-11-22T05:50:25;16.20;65.20
72905;DHT22;61048;52.162;4.516;2023-11-22T05:52:52;16.20;65.10
72905;DHT22;61048;52.162;4.516;2023-11-22T05:55:19;16.20;64.90
72905;DHT22;61048;52.162;4.516;2023-11-22T05:57:46;16.20;64.80
72905;DHT22;61048;52.162;4.516;2023-11-22T06:00:13;16.20;64.60
72905;DHT22;61048;52.162;4.516;2023-11-22T06:02:41;16.20;64.70
72905;DHT22;61048;52.162;4.516;2023-11-22T06:05:08;16.10;64.80
72905;DHT22;61048;52.162;4.516;2023-11-22T06:07:38;16.20;65.90
72905;DHT22;61048;52.162;4.516;2023-11-22T06:10:05;16.20;67.80
72905;DHT22;61048;52.162;4.516;2023-11-22T06:12:32;16.30;67.60
72905;DHT22;61048;52.162;4.516;2023-11-22T06:14:59;16.30;67.80
72905;DHT22;61048;52.162;4.516;2023-11-22T06:17:26;16.20;67.70
72905;DHT22;61048;52.162;4.516;2023-11-22T06:19:55;16.20;67.80
72905;DHT22;61048;52.162;4.516;2023-11-22T06:22:22;16.30;67.80
72905;DHT22;61048;52.162;4.516;2023-11-22T06:24:50;16.30;67.90
72905;DHT22;61048;52.162;4.516;2023-11-22T06:27:17;16.30;67.90
72905;DHT22;61048;52.162;4.516;2023-11-22T06:29:44;16.30;68.10
72905;DHT22;61048;52.162;4.516;2023-11-22T06:32:11;16.30;68.00
72905;DHT22;61048;52.162;4.516;2023-11-22T06:34:38;16.30;68.10
72905;DHT22;61048;52.162;4.516;2023-11-22T06:37:05;16.30;68.20
72905;DHT22;61048;52.162;4.516;2023-11-22T06:39:34;16.30;68.10
72905;DHT22;61048;52.162;4.516;2023-11-22T06:42:04;16.30;68.10
72905;DHT22;61048;52.162;4.516;2023-11-22T06:44:31;16.30;68.10
72905;DHT22;61048;52.162;4.516;2023-11-22T06:46:59;16.30;68.20
72905;DHT22;61048;52.162;4.516;2023-11-22T06:49:27;16.30;68.10
72905;DHT22;61048;52.162;4.516;2023-11-22T06:51:54;16.30;68.10
72905;DHT22;61048;52.162;4.516;2023-11-22T06:54:22;16.30;68.00
72905;DHT22;61048;52.162;4.516;2023-11-22T06:56:48;16.30;68.20
72905;DHT22;61048;52.162;4.516;2023-11-22T06:59:18;16.30;68.00
72905;DHT22;61048;52.162;4.516;2023-11-22T07:01:45;16.30;68.10
72905;DHT22;61048;52.162;4.516;2023-11-22T07:04:12;16.30;68.10
72905;DHT22;61048;52.162;4.516;2023-11-22T07:06:39;16.30;68.10
72905;DHT22;61048;52.162;4.516;2023-11-22T07:09:06;16.30;68.10
72905;DHT22;61048;52.162;4.516;2023-11-22T07:11:35;16.30;68.10
72905;DHT22;61048;52.162;4.516;2023-11-22T07:14:02;16.30;68.10
72905;DHT22;61048;52.162;4.516;2023-11-22T07:16:31;16.30;68.30
72905;DHT22;61048;52.162;4.516;2023-11-22T07:18:59;16.30;68.20
72905;DHT22;61048;52.162;4.516;2023-11-22T07:21:25;16.30;68.10
72905;DHT22;61048;52.162;4.516;2023-11-22T07:23:52;16.30;68.10
72905;DHT22;61048;52.162;4.516;2023-11-22T07:26:20;16.30;68.10
72905;DHT22;61048;52.162;4.516;2023-11-22T07:28:47;16.30;67.70
72905;DHT22;61048;52.162;4.516;2023-11-22T07:31:14;16.20;67.20
72905;DHT22;61048;52.162;4.516;2023-11-22T07:33:42;16.20;66.70
72905;DHT22;61048;52.162;4.516;2023-11-22T07:36:09;16.20;66.40
72905;DHT22;61048;52.162;4.516;2023-11-22T07:38:39;16.20;66.30
72905;DHT22;61048;52.162;4.516;2023-11-22T07:41:08;16.20;66.60
72905;DHT22;61048;52.162;4.516;2023-11-22T07:43:35;16.20;67.50
72905;DHT22;61048;52.162;4.516;2023-11-22T07:46:05;16.20;66.80
72905;DHT22;61048;52.162;4.516;2023-11-22T07:48:34;16.20;68.20
72905;DHT22;61048;52.162;4.516;2023-11-22T07:51:04;16.20;67.90
72905;DHT22;61048;52.162;4.516;2023-11-22T07:53:32;16.20;67.90
72905;DHT22;61048;52.162;4.516;2023-11-22T07:55:59;16.20;67.30
72905;DHT22;61048;52.162;4.516;2023-11-22T07:58:30;16.10;67.00
72905;DHT22;61048;52.162;4.516;2023-11-22T08:00:58;16.10;66.70
72905;DHT22;61048;52.162;4.516;2023-11-22T08:03:25;16.10;66.60
72905;DHT22;61048;52.162;4.516;2023-11-22T08:05:52;16.10;66.20
72905;DHT22;61048;52.162;4.516;2023-11-22T08:08:23;16.00;65.60
72905;DHT22;61048;52.162;4.516;2023-11-22T08:10:51;16.00;65.80
72905;DHT22;61048;52.162;4.516;2023-11-22T08:13:19;16.00;65.60
72905;DHT22;61048;52.162;4.516;2023-11-22T08:15:48;16.00;65.60
72905;DHT22;61048;52.162;4.516;2023-11-22T08:18:15;16.00;65.40
72905;DHT22;61048;52.162;4.516;2023-11-22T08:20:42;16.00;65.30
72905;DHT22;61048;52.162;4.516;2023-11-22T08:23:09;16.00;65.30
72905;DHT22;61048;52.162;4.516;2023-11-22T08:25:39;16.00;65.50
72905;DHT22;61048;52.162;4.516;2023-11-22T08:28:06;16.00;65.70
72905;DHT22;61048;52.162;4.516;2023-11-22T08:30:33;16.00;65.50
72905;DHT22;61048;52.162;4.516;2023-11-22T08:33:02;16.00;65.80
72905;DHT22;61048;52.162;4.516;2023-11-22T08:35:29;16.00;65.90
72905;DHT22;61048;52.162;4.516;2023-11-22T08:37:56;16.00;65.80
72905;DHT22;61048;52.162;4.516;2023-11-22T08:40:24;16.00;65.80
72905;DHT22;61048;52.162;4.516;2023-11-22T08:42:52;16.00;65.80
72905;DHT22;61048;52.162;4.516;2023-11-22T08:45:19;16.00;65.70
72905;DHT22;61048;52.162;4.516;2023-11-22T08:47:46;16.00;65.60
72905;DHT22;61048;52.162;4.516;2023-11-22T08:50:15;16.00;65.70
72905;DHT22;61048;52.162;4.516;2023-11-22T08:52:42;16.00;65.90
72905;DHT22;61048;52.162;4.516;2023-11-22T08:55:11;16.00;65.80
72905;DHT22;61048;52.162;4.516;2023-11-22T08:57:40;16.10;65.70
72905;DHT22;61048;52.162;4.516;2023-11-22T09:00:09;16.10;65.60
72905;DHT22;61048;52.162;4.516;2023-11-22T09:02:37;16.10;65.50
72905;DHT22;61048;52.162;4.516;2023-11-22T09:05:05;16.10;65.50
72905;DHT22;61048;52.162;4.516;2023-11-22T09:07:34;16.10;65.30
72905;DHT22;61048;52.162;4.516;2023-11-22T09:10:01;16.10;65.20
72905;DHT22;61048;52.162;4.516;2023-11-22T09:12:35;16.10;65.20
72905;DHT22;61048;52.162;4.516;2023-11-22T09:15:03;16.10;65.10
72905;DHT22;61048;52.162;4.516;2023-11-22T09:17:35;16.10;65.00
72905;DHT22;61048;52.162;4.516;2023-11-22T09:20:05;16.10;65.00
72905;DHT22;61048;52.162;4.516;2023-11-22T09:22:36;16.10;65.00
72905;DHT22;61048;52.162;4.516;2023-11-22T09:25:05;16.10;65.00
72905;DHT22;61048;52.162;4.516;2023-11-22T09:27:37;16.10;64.90
72905;DHT22;61048;52.162;4.516;2023-11-22T09:30:05;16.10;65.00
72905;DHT22;61048;52.162;4.516;2023-11-22T09:32:38;16.10;64.80
72905;DHT22;61048;52.162;4.516;2023-11-22T09:35:05;16.00;64.60
72905;DHT22;61048;52.162;4.516;2023-11-22T09:37:35;16.10;64.40
72905;DHT22;61048;52.162;4.516;2023-11-22T09:40:04;16.10;64.50
72905;DHT22;61048;52.162;4.516;2023-11-22T09:42:34;16.10;64.10
72905;DHT22;61048;52.162;4.516;2023-11-22T09:45:02;16.10;63.50
72905;DHT22;61048;52.162;4.516;2023-11-22T09:47:32;16.10;64.00
72905;DHT22;61048;52.162;4.516;2023-11-22T09:50:01;16.10;63.90
72905;DHT22;61048;52.162;4.516;2023-11-22T09:52:33;16.10;63.90
72905;DHT22;61048;52.162;4.516;2023-11-22T09:55:02;16.10;63.80
72905;DHT22;61048;52.162;4.516;2023-11-22T09:57:30;16.10;63.70
72905;DHT22;61048;52.162;4.516;2023-11-22T09:59:59;16.10;63.50
72905;DHT22;61048;52.162;4.516;2023-11-22T10:02:27;16.20;63.60
72905;DHT22;61048;52.162;4.516;2023-11-22T10:04:54;16.20;63.60
72905;DHT22;61048;52.162;4.516;2023-11-22T10:07:24;16.20;63.00
72905;DHT22;61048;52.162;4.516;2023-11-22T10:09:51;16.20;63.00
72905;DHT22;61048;52.162;4.516;2023-11-22T10:12:19;16.20;63.10
72905;DHT22;61048;52.162;4.516;2023-11-22T10:14:47;16.20;62.80
72905;DHT22;61048;52.162;4.516;2023-11-22T10:17:14;16.20;63.10
72905;DHT22;61048;52.162;4.516;2023-11-22T10:19:42;16.20;63.00
72905;DHT22;61048;52.162;4.516;2023-11-22T10:22:09;16.20;63.10
72905;DHT22;61048;52.162;4.516;2023-11-22T10:24:42;16.20;62.80
72905;DHT22;61048;52.162;4.516;2023-11-22T10:27:12;16.20;62.40
72905;DHT22;61048;52.162;4.516;2023-11-22T10:29:39;16.20;62.90
72905;DHT22;61048;52.162;4.516;2023-11-22T10:32:06;16.20;62.60
72905;DHT22;61048;52.162;4.516;2023-11-22T10:34:33;16.20;62.50
72905;DHT22;61048;52.162;4.516;2023-11-22T10:37:02;16.20;62.50
72905;DHT22;61048;52.162;4.516;2023-11-22T10:39:30;16.20;62.20
72905;DHT22;61048;52.162;4.516;2023-11-22T10:41:59;16.20;62.40
72905;DHT22;61048;52.162;4.516;2023-11-22T10:44:26;16.30;62.40
72905;DHT22;61048;52.162;4.516;2023-11-22T10:46:54;16.30;62.20
72905;DHT22;61048;52.162;4.516;2023-11-22T10:49:21;16.30;61.60
72905;DHT22;61048;52.162;4.516;2023-11-22T10:51:51;16.30;61.90
72905;DHT22;61048;52.162;4.516;2023-11-22T10:54:20;16.30;61.90
72905;DHT22;61048;52.162;4.516;2023-11-22T10:56:54;16.30;62.00
72905;DHT22;61048;52.162;4.516;2023-11-22T10:59:26;16.30;61.90
72905;DHT22;61048;52.162;4.516;2023-11-22T11:01:55;16.30;62.60
72905;DHT22;61048;52.162;4.516;2023-11-22T11:04:27;16.30;62.00
72905;DHT22;61048;52.162;4.516;2023-11-22T11:06:55;16.30;62.00
72905;DHT22;61048;52.162;4.516;2023-11-22T11:09:23;16.30;62.00
72905;DHT22;61048;52.162;4.516;2023-11-22T11:11:58;16.30;61.90
72905;DHT22;61048;52.162;4.516;2023-11-22T11:14:26;16.30;62.30
72905;DHT22;61048;52.162;4.516;2023-11-22T11:16:54;16.30;62.00
72905;DHT22;61048;52.162;4.516;2023-11-22T11:19:24;16.30;61.70
72905;DHT22;61048;52.162;4.516;2023-11-22T11:21:54;16.30;62.00
72905;DHT22;61048;52.162;4.516;2023-11-22T11:24:22;16.20;62.10
72905;DHT22;61048;52.162;4.516;2023-11-22T11:26:50;16.30;62.10
72905;DHT22;61048;52.162;4.516;2023-11-22T11:29:32;16.30;62.00
72905;DHT22;61048;52.162;4.516;2023-11-22T11:32:00;16.30;61.80
72905;DHT22;61048;52.162;4.516;2023-11-22T11:34:28;16.30;61.90
72905;DHT22;61048;52.162;4.516;2023-11-22T11:36:56;16.30;61.60
72905;DHT22;61048;52.162;4.516;2023-11-22T11:39:26;16.30;62.00
72905;DHT22;61048;52.162;4.516;2023-11-22T11:42:08;16.30;61.80
72905;DHT22;61048;52.162;4.516;2023-11-22T11:44:36;16.30;61.80
72905;DHT22;61048;52.162;4.516;2023-11-22T11:47:11;16.30;61.40
72905;DHT22;61048;52.162;4.516;2023-11-22T11:49:38;16.30;61.80
72905;DHT22;61048;52.162;4.516;2023-11-22T11:52:05;16.30;61.70
72905;DHT22;61048;52.162;4.516;2023-11-22T11:54:33;16.30;61.40
72905;DHT22;61048;52.162;4.516;2023-11-22T11:57:00;16.30;61.80
72905;DHT22;61048;52.162;4.516;2023-11-22T11:59:27;16.30;61.80
72905;DHT22;61048;52.162;4.516;2023-11-22T12:01:59;16.30;61.60
72905;DHT22;61048;52.162;4.516;2023-11-22T12:04:26;16.30;61.60
72905;DHT22;61048;52.162;4.516;2023-11-22T12:06:53;16.30;61.60
72905;DHT22;61048;52.162;4.516;2023-11-22T12:09:23;16.30;61.20
72905;DHT22;61048;52.162;4.516;2023-11-22T12:11:51;16.30;61.40
72905;DHT22;61048;52.162;4.516;2023-11-22T12:14:19;16.30;61.10
72905;DHT22;61048;52.162;4.516;2023-11-22T12:16:46;16.30;61.30
72905;DHT22;61048;52.162;4.516;2023-11-22T12:19:22;16.30;61.00
72905;DHT22;61048;52.162;4.516;2023-11-22T12:21:50;16.30;61.10
72905;DHT22;61048;52.162;4.516;2023-11-22T12:24:17;16.30;61.20
72905;DHT22;61048;52.162;4.516;2023-11-22T12:26:45;16.30;61.30
72905;DHT22;61048;52.162;4.516;2023-11-22T12:29:12;16.30;61.20
72905;DHT22;61048;52.162;4.516;2023-11-22T12:31:47;16.30;59.80
72905;DHT22;61048;52.162;4.516;2023-11-22T12:34:16;16.30;61.20
72905;DHT22;61048;52.162;4.516;2023-11-22T12:36:46;16.30;61.20
72905;DHT22;61048;52.162;4.516;2023-11-22T12:39:14;16.30;61.20
72905;DHT22;61048;52.162;4.516;2023-11-22T12:41:47;16.30;61.10
72905;DHT22;61048;52.162;4.516;2023-11-22T12:44:14;16.30;60.50
72905;DHT22;61048;52.162;4.516;2023-11-22T12:46:49;16.40;60.80
72905;DHT22;61048;52.162;4.516;2023-11-22T12:49:21;16.30;60.10
72905;DHT22;61048;52.162;4.516;2023-11-22T12:51:53;16.40;60.50
72905;DHT22;61048;52.162;4.516;2023-11-22T12:54:20;16.40;60.60
72905;DHT22;61048;52.162;4.516;2023-11-22T12:56:52;16.40;59.50
72905;DHT22;61048;52.162;4.516;2023-11-22T12:59:23;16.30;60.60
72905;DHT22;61048;52.162;4.516;2023-11-22T13:01:53;16.40;60.50
72905;DHT22;61048;52.162;4.516;2023-11-22T13:04:20;16.30;60.40
72905;DHT22;61048;52.162;4.516;2023-11-22T13:06:47;16.30;60.10
72905;DHT22;61048;52.162;4.516;2023-11-22T13:09:15;16.30;60.20
72905;DHT22;61048;52.162;4.516;2023-11-22T13:11:42;16.30;59.90
72905;DHT22;61048;52.162;4.516;2023-11-22T13:14:09;16.30;60.00
72905;DHT22;61048;52.162;4.516;2023-11-22T13:16:39;16.30;59.80
72905;DHT22;61048;52.162;4.516;2023-11-22T13:19:06;16.30;59.40
72905;DHT22;61048;52.162;4.516;2023-11-22T13:21:34;16.30;60.00
72905;DHT22;61048;52.162;4.516;2023-11-22T13:24:01;16.30;60.20
72905;DHT22;61048;52.162;4.516;2023-11-22T13:26:31;16.30;60.10
72905;DHT22;61048;52.162;4.516;2023-11-22T13:28:59;16.30;60.10
72905;DHT22;61048;52.162;4.516;2023-11-22T13:31:26;16.30;60.10
72905;DHT22;61048;52.162;4.516;2023-11-22T13:33:53;16.30;60.10
72905;DHT22;61048;52.162;4.516;2023-11-22T13:36:20;16.30;60.10
72905;DHT22;61048;52.162;4.516;2023-11-22T13:38:47;16.30;59.80
72905;DHT22;61048;52.162;4.516;2023-11-22T13:41:14;16.20;59.60
72905;DHT22;61048;52.162;4.516;2023-11-22T13:43:42;16.30;59.60
72905;DHT22;61048;52.162;4.516;2023-11-22T13:46:12;16.20;59.40
72905;DHT22;61048;52.162;4.516;2023-11-22T13:48:38;16.20;59.50
72905;DHT22;61048;52.162;4.516;2023-11-22T13:51:07;16.20;59.70
72905;DHT22;61048;52.162;4.516;2023-11-22T13:53:36;16.20;59.70
72905;DHT22;61048;52.162;4.516;2023-11-22T13:56:08;16.20;59.70
72905;DHT22;61048;52.162;4.516;2023-11-22T13:58:35;16.20;59.70
72905;DHT22;61048;52.162;4.516;2023-11-22T14:01:04;16.20;59.60
72905;DHT22;61048;52.162;4.516;2023-11-22T14:03:35;16.20;59.80
72905;DHT22;61048;52.162;4.516;2023-11-22T14:06:02;16.20;59.70
72905;DHT22;61048;52.162;4.516;2023-11-22T14:08:30;16.20;59.90
72905;DHT22;61048;52.162;4.516;2023-11-22T14:10:57;16.20;59.80
72905;DHT22;61048;52.162;4.516;2023-11-22T14:13:24;16.20;59.90
72905;DHT22;61048;52.162;4.516;2023-11-22T14:15:51;16.10;59.90
72905;DHT22;61048;52.162;4.516;2023-11-22T14:18:19;16.10;60.00
72905;DHT22;61048;52.162;4.516;2023-11-22T14:20:46;16.10;60.00
72905;DHT22;61048;52.162;4.516;2023-11-22T14:23:13;16.10;60.10
72905;DHT22;61048;52.162;4.516;2023-11-22T14:25:40;16.10;59.90
72905;DHT22;61048;52.162;4.516;2023-11-22T14:28:07;16.10;59.80
72905;DHT22;61048;52.162;4.516;2023-11-22T14:30:34;16.10;59.80
72905;DHT22;61048;52.162;4.516;2023-11-22T14:33:02;16.10;60.10
72905;DHT22;61048;52.162;4.516;2023-11-22T14:35:33;16.10;60.00
72905;DHT22;61048;52.162;4.516;2023-11-22T14:38:01;16.10;60.10
72905;DHT22;61048;52.162;4.516;2023-11-22T14:40:29;16.10;60.00
72905;DHT22;61048;52.162;4.516;2023-11-22T14:42:57;16.10;60.10
72905;DHT22;61048;52.162;4.516;2023-11-22T14:45:23;16.10;60.10
72905;DHT22;61048;52.162;4.516;2023-11-22T14:47:52;16.10;60.30
72905;DHT22;61048;52.162;4.516;2023-11-22T14:50:19;16.00;60.10
72905;DHT22;61048;52.162;4.516;2023-11-22T14:52:48;16.00;60.20
72905;DHT22;61048;52.162;4.516;2023-11-22T14:55:15;16.00;60.20
72905;DHT22;61048;52.162;4.516;2023-11-22T14:57:44;16.00;60.20
72905;DHT22;61048;52.162;4.516;2023-11-22T15:00:12;16.00;60.40
72905;DHT22;61048;52.162;4.516;2023-11-22T15:02:39;16.00;60.10
72905;DHT22;61048;52.162;4.516;2023-11-22T15:05:08;16.00;60.10
72905;DHT22;61048;52.162;4.516;2023-11-22T15:07:35;16.00;60.00
72905;DHT22;61048;52.162;4.516;2023-11-22T15:10:05;16.00;60.00
72905;DHT22;61048;52.162;4.516;2023-11-22T15:12:32;15.90;60.00
72905;DHT22;61048;52.162;4.516;2023-11-22T15:15:00;15.90;60.10
72905;DHT22;61048;52.162;4.516;2023-11-22T15:17:27;15.90;60.10
72905;DHT22;61048;52.162;4.516;2023-11-22T15:19:54;15.90;60.20
72905;DHT22;61048;52.162;4.516;2023-11-22T15:22:23;15.90;59.90
72905;DHT22;61048;52.162;4.516;2023-11-22T15:24:51;15.90;60.00
72905;DHT22;61048;52.162;4.516;2023-11-22T15:27:20;15.90;60.10
72905;DHT22;61048;52.162;4.516;2023-11-22T15:29:47;15.90;59.80
72905;DHT22;61048;52.162;4.516;2023-11-22T15:32:14;15.90;59.90
72905;DHT22;61048;52.162;4.516;2023-11-22T15:34:41;15.90;60.00
72905;DHT22;61048;52.162;4.516;2023-11-22T15:37:07;15.80;60.10